Archiv-/Tagesdaten

--Timestamp---	Temp	Chill	HIndex	Humid	Dewpt	Wind	HiWind	WindDir	Rain	Barom	        Solar	ET	UV
--------------	----	-----	------	-----	-----	----	------	-------	----	-----	        -----	--	--
20081124 00:05	-3.6	-3.6	-3.6	88	-5.3	2	5	135	0.00	992.723	0	0.000	0
20081124 00:10	-3.7	-3.7	-3.7	89	-5.2	2	5	157	0.00	992.452	0	0.000	0
20081124 00:15	-3.7	-3.7	-3.7	89	-5.2	3	8	135	0.00	992.215	0	0.000	0
20081124 00:20	-3.7	-3.7	-3.7	89	-5.2	3	8	157	0.00	992.147	0	0.000	0
20081124 00:25	-3.7	-3.7	-3.7	89	-5.2	3	6	135	0.00	992.012	0	0.000	0
20081124 00:30	-3.7	-3.7	-3.7	89	-5.2	2	6	157	0.00	991.978	0	0.000	0
20081124 00:35	-3.6	-3.6	-3.6	89	-5.2	2	5	112	0.00	991.944	0	0.000	0
20081124 00:40	-3.6	-3.6	-3.6	90	-5.0	0	3	157	0.00	991.910	0	0.000	0
20081124 00:45	-3.6	-3.6	-3.6	90	-5.0	0	2	157	0.00	991.910	0	0.000	0
20081124 00:50	-3.6	-3.6	-3.6	90	-5.0	0	5	157	0.00	991.876	0	0.000	0
20081124 00:55	-3.6	-3.6	-3.6	90	-5.0	0	3	157	0.00	991.774	0	0.000	0
20081124 01:00	-3.6	-3.6	-3.6	90	-5.0	0	3	135	0.00	991.774	0	0.000	0
20081124 01:05	-3.6	-3.6	-3.6	90	-5.0	0	2	180	0.00	991.470	0	0.000	0
20081124 01:10	-3.5	-3.5	-3.5	90	-4.9	0	3	202	0.00	991.402	0	0.000	0
20081124 01:15	-3.5	-3.5	-3.5	90	-4.9	0	2	202	0.00	991.334	0	0.000	0
20081124 01:20	-3.5	-3.5	-3.5	90	-4.9	0	2	202	0.00	991.334	0	0.000	0
20081124 01:25	-3.4	-3.4	-3.4	91	-4.7	0	2	202	0.00	991.368	0	0.000	0
20081124 01:30	-3.4	-3.4	-3.4	91	-4.6	0	3	202	0.00	991.334	0	0.000	0
20081124 01:35	-3.3	-3.3	-3.3	91	-4.6	0	5	202	0.00	991.300	0	0.000	0
20081124 01:40	-3.3	-3.3	-3.3	91	-4.6	0	3	202	0.00	991.368	0	0.000	0
20081124 01:45	-3.3	-3.3	-3.3	91	-4.5	2	5	202	0.00	991.402	0	0.000	0
20081124 01:50	-3.2	-3.2	-3.2	91	-4.5	0	2	180	0.00	991.334	0	0.000	0
20081124 01:55	-3.2	-3.2	-3.2	91	-4.5	0	6	157	0.00	991.300	0	0.000	0
20081124 02:00	-3.2	-3.2	-3.2	91	-4.5	0	3	157	0.00	991.266	0	0.000	0
20081124 02:05	-3.2	-3.2	-3.2	91	-4.4	0	3	180	0.00	991.165	0	0.000	0
20081124 02:10	-3.1	-3.1	-3.1	91	-4.4	0	5	180	0.00	991.199	0	0.000	0
20081124 02:15	-3.0	-3.0	-3.0	91	-4.3	2	6	225	0.00	991.199	0	0.000	0
20081124 02:20	-2.9	-2.9	-2.9	91	-4.2	2	6	202	0.00	991.199	0	0.000	0
20081124 02:25	-2.9	-2.9	-2.9	91	-4.1	2	6	225	0.00	991.199	0	0.000	0
20081124 02:30	-2.8	-2.8	-2.8	91	-4.0	3	10	202	0.00	991.300	0	0.000	0
20081124 02:35	-2.7	-2.7	-2.7	91	-4.0	2	8	202	0.00	991.436	0	0.000	0
20081124 02:40	-2.7	-2.7	-2.7	91	-3.9	2	6	202	0.00	991.402	0	0.000	0
20081124 02:45	-2.6	-2.6	-2.6	91	-3.9	2	8	202	0.00	991.402	0	0.000	0
20081124 02:50	-2.6	-2.6	-2.6	91	-3.8	3	6	225	0.00	991.571	0	0.000	0
20081124 02:55	-2.5	-2.5	-2.5	91	-3.8	3	6	225	0.00	991.537	0	0.000	0
20081124 03:00	-2.4	-2.4	-2.4	91	-3.7	3	10	225	0.00	991.605	0	0.000	0
20081124 03:05	-2.3	-2.3	-2.3	91	-3.6	2	5	225	0.00	991.741	0	0.000	0
20081124 03:10	-2.3	-2.3	-2.3	91	-3.5	2	5	225	0.00	991.808	0	0.000	0
20081124 03:15	-2.2	-2.2	-2.2	91	-3.5	3	8	225	0.00	991.741	0	0.000	0
20081124 03:20	-2.1	-2.1	-2.1	92	-3.2	3	5	225	0.00	991.774	0	0.000	0
20081124 03:25	-1.9	-1.9	-1.9	92	-3.1	3	6	225	0.00	991.808	0	0.000	0
20081124 03:30	-1.8	-1.8	-1.8	92	-3.0	2	6	225	0.00	991.707	0	0.000	0
20081124 03:35	-1.7	-1.7	-1.7	92	-2.8	2	3	247	0.00	991.673	0	0.000	0
20081124 03:40	-1.6	-1.6	-1.6	92	-2.7	2	6	202	0.00	991.605	0	0.000	0
20081124 03:45	-1.5	-1.5	-1.5	92	-2.6	3	10	225	0.00	991.639	0	0.000	0
20081124 03:50	-1.4	-1.4	-1.4	92	-2.6	2	6	225	0.00	991.707	0	0.000	0
20081124 03:55	-1.3	-1.3	-1.3	92	-2.5	2	6	225	0.00	991.673	0	0.000	0
20081124 04:00	-1.3	-1.3	-1.3	92	-2.4	3	6	225	0.00	991.741	0	0.000	0
20081124 04:05	-1.2	-1.2	-1.2	92	-2.4	3	8	225	0.00	991.774	0	0.000	0
20081124 04:10	-1.1	-1.1	-1.1	93	-2.1	3	6	225	0.00	991.808	0	0.000	0
20081124 04:15	-1.1	-1.1	-1.1	93	-2.0	3	10	202	0.00	991.707	0	0.000	0
20081124 04:20	-1.0	-1.0	-1.0	93	-2.0	3	6	225	0.00	991.842	0	0.000	0
20081124 04:25	-0.9	-0.9	-0.9	93	-1.9	2	5	225	0.00	991.774	0	0.000	0
20081124 04:30	-0.8	-0.8	-0.8	93	-1.8	3	6	225	0.00	991.741	0	0.000	0
20081124 04:35	-0.7	-0.7	-0.7	93	-1.7	3	8	247	0.00	991.741	0	0.000	0
20081124 04:40	-0.7	-0.7	-0.7	93	-1.7	3	8	225	0.00	991.774	0	0.000	0
20081124 04:45	-0.6	-0.6	-0.6	93	-1.6	3	14	225	0.00	991.808	0	0.000	0
20081124 04:50	-0.6	-0.6	-0.6	93	-1.5	3	14	247	0.00	991.774	0	0.000	0
20081124 04:55	-0.4	-0.4	-0.4	93	-1.4	3	8	247	0.00	991.741	0	0.000	0
20081124 05:00	-0.4	-0.4	-0.4	93	-1.4	3	6	225	0.00	991.774	0	0.000	0
20081124 05:05	-0.3	-0.3	-0.3	93	-1.3	3	6	225	0.00	991.944	0	0.000	0
20081124 05:10	-0.3	-0.3	-0.3	93	-1.3	2	8	225	0.00	991.876	0	0.000	0
20081124 05:15	-0.3	-0.3	-0.3	93	-1.3	3	6	225	0.00	991.876	0	0.000	0
20081124 05:20	-0.3	-0.3	-0.3	93	-1.3	3	8	202	0.00	991.707	0	0.000	0
20081124 05:25	-0.3	-0.3	-0.3	93	-1.3	2	6	202	0.00	991.774	0	0.000	0
20081124 05:30	-0.3	-0.3	-0.3	92	-1.4	2	5	225	0.00	991.774	0	0.000	0
20081124 05:35	-0.3	-0.3	-0.3	92	-1.4	3	8	225	0.00	991.639	0	0.000	0
20081124 05:40	-0.2	-0.2	-0.2	92	-1.4	3	10	225	0.00	991.707	0	0.000	0
20081124 05:45	-0.2	-0.2	-0.2	92	-1.4	3	8	247	0.00	991.808	0	0.000	0
20081124 05:50	-0.2	-0.2	-0.2	92	-1.4	2	10	247	0.00	991.808	0	0.000	0
20081124 05:55	-0.2	-0.2	-0.2	92	-1.4	3	10	225	0.00	991.842	0	0.000	0
20081124 06:00	-0.2	-0.2	-0.2	92	-1.3	3	8	225	0.00	991.774	0	0.000	0
20081124 06:05	0.1	0.1	0.1	92	-1.1	5	16	202	0.00	991.910	0	0.000	0
20081124 06:10	0.1	0.1	0.1	91	-1.2	3	10	225	0.00	992.079	0	0.000	0
20081124 06:15	0.1	0.1	0.1	91	-1.2	2	6	247	0.00	992.079	0	0.000	0
20081124 06:20	0.1	0.1	0.1	91	-1.2	3	6	225	0.00	992.113	0	0.000	0
20081124 06:25	0.2	0.2	0.2	91	-1.1	3	6	225	0.00	992.147	0	0.000	0
20081124 06:30	0.2	0.2	0.2	91	-1.1	3	6	225	0.00	992.113	0	0.000	0
20081124 06:35	0.2	0.2	0.2	91	-1.1	3	6	225	0.00	992.147	0	0.000	0
20081124 06:40	0.3	0.3	0.3	91	-1.0	5	8	225	0.00	992.045	0	0.000	0
20081124 06:45	0.4	0.4	0.4	90	-1.1	5	11	247	0.00	992.012	0	0.000	0
20081124 06:50	0.5	-1.6	0.5	90	-0.9	6	14	225	0.00	992.045	0	0.000	0
20081124 06:55	0.7	-1.4	0.7	90	-0.8	6	14	247	0.00	992.012	0	0.000	0
20081124 07:00	0.7	-1.3	0.7	89	-0.9	6	11	247	0.00	992.012	0	0.000	0
20081124 07:05	0.8	0.8	0.8	89	-0.8	5	14	247	0.00	992.215	0	0.000	0
20081124 07:10	0.8	-1.3	0.8	89	-0.8	6	16	247	0.00	992.282	0	0.000	0
20081124 07:15	0.8	0.8	0.8	88	-0.9	5	11	247	0.00	992.316	0	0.000	0
20081124 07:20	0.9	0.9	0.9	88	-0.9	5	14	247	0.00	992.384	0	0.000	0
20081124 07:25	1.0	-1.0	1.0	88	-0.8	6	16	247	0.00	992.282	0	0.000	0
20081124 07:30	1.1	-1.0	1.1	88	-0.7	6	14	247	0.00	992.452	0	0.000	0
20081124 07:35	1.1	-0.9	1.1	87	-0.8	6	18	247	0.40	992.587	0	0.000	0
20081124 07:40	1.1	1.1	1.1	87	-0.8	5	14	247	0.40	992.587	0	0.000	0
20081124 07:45	1.1	1.1	1.1	87	-0.8	3	8	270	0.20	992.553	0	0.000	0
20081124 07:50	1.1	1.1	1.1	87	-0.8	5	10	225	0.40	992.723	0	0.000	0
20081124 07:55	1.1	-0.9	1.1	86	-1.0	6	11	247	0.20	992.824	4	0.000	0
20081124 08:00	1.0	1.0	1.0	86	-1.1	5	10	247	0.40	992.926	5	0.000	0
20081124 08:05	0.8	0.8	0.8	86	-1.2	5	10	247	0.20	993.163	5	0.000	0
20081124 08:10	0.7	0.7	0.7	86	-1.3	3	10	247	0.20	993.163	5	0.000	0
20081124 08:15	0.6	0.6	0.6	86	-1.5	3	8	247	0.20	993.264	5	0.000	0
20081124 08:20	0.6	0.6	0.6	87	-1.4	2	8	225	0.20	993.298	5	0.000	0
20081124 08:25	0.6	0.6	0.6	87	-1.4	5	6	225	0.20	993.332	7	0.000	0
20081124 08:30	0.5	0.5	0.5	86	-1.6	3	8	225	0.00	993.366	9	0.000	0
20081124 08:35	0.3	0.3	0.3	86	-1.7	5	10	225	0.20	993.468	9	0.000	0
20081124 08:40	0.3	0.3	0.3	87	-1.6	5	10	225	0.20	993.468	11	0.000	0
20081124 08:45	0.3	-1.9	0.3	87	-1.6	6	14	202	0.00	993.501	11	0.000	0
20081124 08:50	0.3	0.3	0.3	88	-1.4	3	10	202	0.00	993.569	12	0.000	0
20081124 08:55	0.3	0.3	0.3	88	-1.4	5	11	202	0.20	993.705	12	0.000	0
20081124 09:00	0.2	0.2	0.2	87	-1.7	5	8	225	0.00	993.772	12	0.000	0
20081124 09:05	0.2	0.2	0.2	88	-1.6	5	11	202	0.20	993.874	12	0.000	0
20081124 09:10	0.1	0.1	0.1	88	-1.6	5	10	202	0.00	993.976	13	0.000	0
20081124 09:15	0.1	0.1	0.1	88	-1.6	5	8	180	0.00	993.942	12	0.000	0
20081124 09:20	0.1	0.1	0.1	88	-1.6	3	10	202	0.20	993.942	14	0.000	0
20081124 09:25	0.2	0.2	0.2	88	-1.6	2	6	202	0.00	993.942	16	0.000	0
20081124 09:30	0.2	0.2	0.2	88	-1.6	0	5	202	0.00	993.976	16	0.000	0
20081124 09:35	0.2	0.2	0.2	88	-1.5	0	2	202	0.00	994.009	21	0.000	0
20081124 09:40	0.3	0.3	0.3	88	-1.5	0	6	157	0.20	993.942	40	0.000	0
20081124 09:45	0.4	0.4	0.4	88	-1.3	2	5	180	0.00	994.009	57	0.000	0
20081124 09:50	0.7	0.7	0.7	87	-1.2	0	5	157	0.00	993.976	58	0.000	0
20081124 09:55	0.8	0.8	0.8	86	-1.2	2	6	180	0.00	993.942	46	0.000	0
20081124 10:00	0.9	0.9	0.9	85	-1.3	3	10	202	0.00	993.976	34	0.000	0
20081124 10:05	1.1	1.1	1.1	85	-1.2	2	6	225	0.20	993.976	30	0.000	0
20081124 10:10	1.2	1.2	1.2	83	-1.4	3	8	225	0.00	993.942	27	0.000	0
20081124 10:15	1.2	1.2	1.2	82	-1.5	2	8	180	0.00	994.009	32	0.000	0
20081124 10:20	1.3	1.3	1.3	81	-1.6	2	6	202	0.00	994.009	35	0.000	0
20081124 10:25	1.3	1.3	1.3	81	-1.6	0	3	202	0.00	994.077	41	0.000	0
20081124 10:30	1.4	1.4	1.4	81	-1.5	2	8	202	0.00	994.043	63	0.000	1
20081124 10:35	1.7	1.7	1.7	80	-1.4	2	11	202	0.00	994.043	80	0.000	1
20081124 10:40	1.8	1.8	1.8	78	-1.6	2	8	202	0.00	994.077	73	0.000	1
20081124 10:45	1.8	1.8	1.8	78	-1.6	2	10	180	0.00	994.111	92	0.000	1
20081124 10:50	1.7	1.7	1.7	77	-1.9	3	8	180	0.00	994.179	103	0.000	1
20081124 10:55	1.6	1.6	1.6	77	-2.0	3	11	202	0.20	994.145	115	0.000	1
20081124 11:00	1.5	1.5	1.5	78	-1.9	5	8	202	0.00	994.077	126	0.020	1
20081124 11:05	1.5	1.5	1.5	79	-1.7	5	10	225	0.00	994.348	168	0.000	1
20081124 11:10	1.6	1.6	1.6	78	-1.9	5	11	202	0.00	994.382	149	0.000	1
20081124 11:15	1.6	1.6	1.6	79	-1.7	5	11	202	0.00	994.348	99	0.000	1
20081124 11:20	1.4	1.4	1.4	80	-1.6	5	10	202	0.00	994.314	76	0.000	1
20081124 11:25	1.5	1.5	1.5	80	-1.6	3	10	180	0.00	994.348	86	0.000	1
20081124 11:30	1.5	1.5	1.5	81	-1.4	3	8	225	0.00	994.382	96	0.000	1
20081124 11:35	1.5	1.5	1.5	82	-1.2	5	16	225	0.00	994.450	98	0.000	1
20081124 11:40	1.5	1.5	1.5	83	-1.1	5	11	202	0.00	994.416	109	0.000	1
20081124 11:45	1.4	1.4	1.4	84	-1.0	5	11	225	0.00	994.382	131	0.000	1
20081124 11:50	1.4	1.4	1.4	84	-1.0	3	8	225	0.00	994.382	134	0.000	1
20081124 11:55	1.5	1.5	1.5	84	-0.9	5	10	202	0.00	994.416	133	0.000	1
20081124 12:00	1.6	1.6	1.6	85	-0.6	2	5	202	0.00	994.416	132	0.040	1
20081124 12:05	1.7	1.7	1.7	84	-0.7	2	5	202	0.00	994.450	134	0.000	1
20081124 12:10	1.8	1.8	1.8	84	-0.6	3	8	247	0.00	994.450	126	0.000	1
20081124 12:15	1.8	1.8	1.8	83	-0.7	3	8	202	0.00	994.517	124	0.000	1
20081124 12:20	1.8	1.8	1.8	83	-0.7	3	6	202	0.00	994.484	126	0.000	1
20081124 12:25	1.9	1.9	1.9	83	-0.6	3	8	202	0.00	994.517	129	0.000	1
20081124 12:30	2.1	2.1	2.1	82	-0.7	3	6	202	0.00	994.348	141	0.000	1
20081124 12:35	2.2	2.2	2.2	82	-0.6	2	6	202	0.00	994.416	130	0.000	1
20081124 12:40	2.3	2.3	2.3	82	-0.5	0	6	202	0.00	994.450	127	0.000	1
20081124 12:45	2.5	2.5	2.5	82	-0.3	0	2	202	0.00	994.450	142	0.000	1
20081124 12:50	2.6	2.6	2.6	81	-0.3	2	6	202	0.00	994.450	149	0.000	1
20081124 12:55	2.7	2.7	2.7	80	-0.4	3	6	202	0.00	994.416	172	0.000	1
20081124 13:00	2.8	2.8	2.8	79	-0.5	5	10	202	0.00	994.416	207	0.040	1
20081124 13:05	2.9	2.9	2.9	79	-0.4	3	8	225	0.00	994.450	214	0.000	1
20081124 13:10	3.0	3.0	3.0	78	-0.5	3	8	247	0.00	994.484	167	0.000	1
20081124 13:15	3.1	3.1	3.1	77	-0.6	3	11	225	0.00	994.416	133	0.000	1
20081124 13:20	3.1	3.1	3.1	76	-0.7	2	5	247	0.00	994.416	118	0.000	1
20081124 13:25	3.1	3.1	3.1	75	-0.9	3	16	247	0.00	994.484	126	0.000	1
20081124 13:30	3.2	3.2	3.2	75	-0.8	3	10	225	0.00	994.551	121	0.000	1
20081124 13:35	3.2	3.2	3.2	75	-0.8	3	6	225	0.00	994.653	116	0.000	1
20081124 13:40	3.2	3.2	3.2	76	-0.7	3	10	247	0.00	994.721	99	0.000	0
20081124 13:45	3.1	3.1	3.1	76	-0.7	3	8	247	0.00	994.754	114	0.000	1
20081124 13:50	3.1	3.1	3.1	77	-0.6	2	5	247	0.00	994.822	108	0.000	0
20081124 13:55	3.1	3.1	3.1	78	-0.4	2	5	247	0.00	994.856	107	0.000	0
20081124 14:00	3.1	3.1	3.1	77	-0.6	2	6	247	0.00	994.890	106	0.040	0
20081124 14:05	3.1	3.1	3.1	77	-0.5	3	6	247	0.00	994.788	108	0.000	0
20081124 14:10	3.1	3.1	3.1	78	-0.3	3	6	247	0.00	994.754	95	0.000	0
20081124 14:15	3.2	3.2	3.2	78	-0.3	3	6	247	0.00	994.890	88	0.000	0
20081124 14:20	3.2	3.2	3.2	78	-0.3	3	6	292	0.00	994.890	100	0.000	0
20081124 14:25	3.2	3.2	3.2	77	-0.5	5	6	292	0.00	994.924	97	0.000	0
20081124 14:30	3.2	3.2	3.2	78	-0.3	3	10	292	0.00	994.856	96	0.000	0
20081124 14:35	3.1	3.1	3.1	78	-0.4	5	8	270	0.00	994.890	85	0.000	0
20081124 14:40	3.0	3.0	3.0	78	-0.5	3	6	247	0.00	994.890	76	0.000	0
20081124 14:45	3.0	3.0	3.0	79	-0.3	3	6	247	0.00	994.992	90	0.000	0
20081124 14:50	3.0	3.0	3.0	79	-0.3	3	5	247	0.00	994.992	108	0.000	0
20081124 14:55	3.1	3.1	3.1	79	-0.2	3	5	247	0.00	994.890	105	0.000	0
20081124 15:00	3.2	3.2	3.2	79	-0.1	3	5	247	0.00	994.958	105	0.040	0
20081124 15:05	3.3	3.3	3.3	79	-0.0	2	5	247	0.00	994.856	62	0.000	0
20081124 15:10	3.3	3.3	3.3	79	0.0	0	2	247	0.00	994.958	53	0.000	0
20081124 15:15	3.2	3.2	3.2	79	-0.1	0	3	247	0.00	994.992	58	0.000	0
20081124 15:20	3.2	3.2	3.2	80	0.1	0	0	247	0.00	994.958	56	0.000	0
20081124 15:25	3.1	3.1	3.1	79	-0.2	2	6	315	0.00	995.025	45	0.000	0
20081124 15:30	3.1	3.1	3.1	80	-0.1	2	6	315	0.00	995.059	40	0.000	0
20081124 15:35	3.1	3.1	3.1	79	-0.2	3	8	292	0.00	995.025	46	0.000	0
20081124 15:40	3.0	3.0	3.0	79	-0.3	5	8	270	0.00	995.229	36	0.000	0
20081124 15:45	2.8	2.8	2.8	80	-0.3	5	8	270	0.00	995.296	29	0.000	0
20081124 15:50	2.7	2.7	2.7	80	-0.4	5	6	270	0.00	995.330	30	0.000	0
20081124 15:55	2.6	2.6	2.6	80	-0.5	5	8	292	0.00	995.432	21	0.000	0
20081124 16:00	2.6	2.6	2.6	80	-0.5	5	10	292	0.00	995.432	14	0.020	0
20081124 16:05	2.4	0.6	2.4	80	-0.7	6	13	292	0.00	995.364	11	0.000	0
20081124 16:10	2.4	2.4	2.4	81	-0.5	5	8	292	0.00	995.499	9	0.000	0
20081124 16:15	2.4	2.4	2.4	81	-0.5	5	10	292	0.00	995.567	6	0.000	0
20081124 16:20	2.4	2.4	2.4	81	-0.5	3	5	315	0.00	995.567	5	0.000	0
20081124 16:25	2.3	2.3	2.3	82	-0.4	2	5	315	0.00	995.669	0	0.000	0
20081124 16:30	2.3	2.3	2.3	82	-0.5	5	10	292	0.00	995.737	0	0.000	0
20081124 16:35	2.3	2.3	2.3	82	-0.5	3	8	270	0.00	995.838	0	0.000	0
20081124 16:40	2.2	2.2	2.2	82	-0.5	3	5	270	0.00	995.974	0	0.000	0
20081124 16:45	2.2	2.2	2.2	82	-0.5	3	6	270	0.00	995.974	0	0.000	0
20081124 16:50	2.2	2.2	2.2	83	-0.4	3	5	270	0.00	996.109	0	0.000	0
20081124 16:55	2.2	2.2	2.2	83	-0.4	2	3	270	0.00	996.109	0	0.000	0
20081124 17:00	2.1	2.1	2.1	83	-0.5	0	3	270	0.00	996.245	0	0.000	0
20081124 17:05	2.1	2.1	2.1	83	-0.5	0	3	270	0.00	996.109	0	0.000	0
20081124 17:10	2.2	2.2	2.2	84	-0.3	0	0	270	0.00	996.143	0	0.000	0
20081124 17:15	2.2	2.2	2.2	84	-0.3	0	2	270	0.00	996.211	0	0.000	0
20081124 17:20	2.2	2.2	2.2	84	-0.3	0	2	270	0.00	996.245	0	0.000	0
20081124 17:25	2.2	2.2	2.2	84	-0.3	0	0	270	0.00	996.380	0	0.000	0
20081124 17:30	2.2	2.2	2.2	84	-0.3	0	2	270	0.00	996.448	0	0.000	0
20081124 17:35	2.2	2.2	2.2	84	-0.3	0	2	270	0.00	996.482	0	0.000	0
20081124 17:40	2.1	2.1	2.1	84	-0.3	0	2	270	0.00	996.549	0	0.000	0
20081124 17:45	2.2	2.2	2.2	84	-0.3	0	2	270	0.00	996.515	0	0.000	0
20081124 17:50	2.1	2.1	2.1	84	-0.3	0	2	270	0.00	996.617	0	0.000	0
20081124 17:55	2.1	2.1	2.1	84	-0.3	0	0	270	0.00	996.685	0	0.000	0
20081124 18:00	2.1	2.1	2.1	84	-0.3	0	2	270	0.00	996.922	0	0.000	0
20081124 18:05	2.1	2.1	2.1	84	-0.3	0	0	270	0.00	996.990	0	0.000	0
20081124 18:10	2.2	2.2	2.2	84	-0.3	0	0	270	0.00	997.023	0	0.000	0
20081124 18:15	2.1	2.1	2.1	84	-0.3	0	2	270	0.00	997.023	0	0.000	0
20081124 18:20	2.2	2.2	2.2	84	-0.3	0	3	270	0.00	997.023	0	0.000	0
20081124 18:25	2.1	2.1	2.1	84	-0.4	2	3	270	0.00	997.159	0	0.000	0
20081124 18:30	2.1	2.1	2.1	84	-0.4	2	3	270	0.00	997.227	0	0.000	0
20081124 18:35	2.0	2.0	2.0	84	-0.4	2	5	270	0.00	997.193	0	0.000	0
20081124 18:40	1.9	1.9	1.9	84	-0.5	3	5	270	0.00	997.260	0	0.000	0
20081124 18:45	1.9	1.9	1.9	84	-0.5	2	5	270	0.00	997.362	0	0.000	0
20081124 18:50	1.9	1.9	1.9	84	-0.5	2	5	270	0.00	997.464	0	0.000	0
20081124 18:55	1.9	1.9	1.9	84	-0.5	0	3	270	0.00	997.430	0	0.000	0
20081124 19:00	1.9	1.9	1.9	84	-0.5	0	3	270	0.00	997.497	0	0.000	0
20081124 19:05	1.9	1.9	1.9	85	-0.3	0	3	270	0.00	997.531	0	0.000	0
20081124 19:10	1.9	1.9	1.9	85	-0.3	0	0	270	0.00	997.396	0	0.000	0
20081124 19:15	2.0	2.0	2.0	85	-0.3	0	2	270	0.00	997.396	0	0.000	0
20081124 19:20	1.9	1.9	1.9	85	-0.3	0	2	270	0.00	997.430	0	0.000	0
20081124 19:25	2.0	2.0	2.0	85	-0.3	0	3	270	0.00	997.565	0	0.000	0
20081124 19:30	1.9	1.9	1.9	85	-0.3	0	3	270	0.00	997.734	0	0.000	0
20081124 19:35	1.9	1.9	1.9	85	-0.4	2	5	270	0.00	997.938	0	0.000	0
20081124 19:40	1.9	1.9	1.9	85	-0.4	0	2	270	0.00	998.107	0	0.000	0
20081124 19:45	1.8	1.8	1.8	85	-0.4	2	6	270	0.00	998.039	0	0.000	0
20081124 19:50	1.8	1.8	1.8	85	-0.4	0	3	270	0.00	998.107	0	0.000	0
20081124 19:55	1.8	1.8	1.8	85	-0.5	0	5	270	0.00	998.175	0	0.000	0
20081124 20:00	1.8	1.8	1.8	85	-0.5	2	5	270	0.00	998.209	0	0.000	0
20081124 20:05	1.8	1.8	1.8	85	-0.5	2	5	270	0.00	998.412	0	0.000	0
20081124 20:10	1.8	1.8	1.8	85	-0.5	2	6	270	0.00	998.412	0	0.000	0
20081124 20:15	1.8	1.8	1.8	85	-0.5	0	5	270	0.00	998.446	0	0.000	0
20081124 20:20	1.8	1.8	1.8	85	-0.5	0	3	270	0.00	998.446	0	0.000	0
20081124 20:25	1.7	1.7	1.7	85	-0.5	2	5	270	0.00	998.480	0	0.000	0
20081124 20:30	1.6	1.6	1.6	86	-0.5	2	5	270	0.00	998.513	0	0.000	0
20081124 20:35	1.6	1.6	1.6	86	-0.5	0	3	270	0.00	998.581	0	0.000	0
20081124 20:40	1.6	1.6	1.6	86	-0.5	0	2	270	0.00	998.649	0	0.000	0
20081124 20:45	1.4	1.4	1.4	86	-0.6	0	2	270	0.00	998.750	0	0.000	0
20081124 20:50	1.3	1.3	1.3	86	-0.7	0	2	270	0.00	998.818	0	0.000	0
20081124 20:55	1.3	1.3	1.3	86	-0.7	0	2	270	0.00	998.852	0	0.000	0
20081124 21:00	1.3	1.3	1.3	86	-0.7	0	0	270	0.00	998.852	0	0.000	0
20081124 21:05	1.3	1.3	1.3	86	-0.7	0	0	270	0.00	998.750	0	0.000	0
20081124 21:10	1.3	1.3	1.3	86	-0.7	0	0	270	0.00	998.784	0	0.000	0
20081124 21:15	1.3	1.3	1.3	86	-0.7	0	2	270	0.00	998.818	0	0.000	0
20081124 21:20	1.3	1.3	1.3	86	-0.7	0	0	270	0.00	998.886	0	0.000	0
20081124 21:25	1.3	1.3	1.3	86	-0.7	0	0	270	0.00	998.920	0	0.000	0
20081124 21:30	1.3	1.3	1.3	86	-0.8	0	0	270	0.00	998.954	0	0.000	0
20081124 21:35	1.2	1.2	1.2	86	-0.9	0	2	270	0.00	999.055	0	0.000	0
20081124 21:40	1.1	1.1	1.1	86	-1.0	0	0	270	0.00	999.089	0	0.000	0
20081124 21:45	1.1	1.1	1.1	87	-0.9	0	0	270	0.00	999.157	0	0.000	0
20081124 21:50	1.1	1.1	1.1	87	-0.9	0	0	270	0.00	999.292	0	0.000	0
20081124 21:55	1.0	1.0	1.0	87	-0.9	0	0	270	0.00	999.360	0	0.000	0
20081124 22:00	0.9	0.9	0.9	87	-1.0	0	2	270	0.00	999.495	0	0.000	0
20081124 22:05	0.9	0.9	0.9	87	-1.0	0	0	270	0.00	999.495	0	0.000	0
20081124 22:10	0.8	0.8	0.8	88	-0.9	0	0	270	0.00	999.462	0	0.000	0
20081124 22:15	0.8	0.8	0.8	88	-1.0	0	3	270	0.00	999.529	0	0.000	0
20081124 22:20	0.7	0.7	0.7	88	-1.0	3	6	270	0.00	999.597	0	0.000	0
20081124 22:25	0.7	0.7	0.7	88	-1.1	5	10	270	0.00	999.631	0	0.000	0
20081124 22:30	0.7	0.7	0.7	87	-1.2	5	8	247	0.00	999.631	0	0.000	0
20081124 22:35	0.6	0.6	0.6	87	-1.4	3	8	247	0.00	999.631	0	0.000	0
20081124 22:40	0.4	0.4	0.4	87	-1.5	3	6	247	0.00	999.800	0	0.000	0
20081124 22:45	0.3	0.3	0.3	87	-1.6	5	6	247	0.00	999.868	0	0.000	0
20081124 22:50	0.2	0.2	0.2	87	-1.7	3	6	247	0.00	999.868	0	0.000	0
20081124 22:55	0.1	0.1	0.1	87	-1.8	3	5	247	0.00	1000.003	0	0.000	0
20081124 23:00	0.0	0.0	0.0	87	-1.9	2	5	247	0.00	1000.139	0	0.000	0
20081124 23:05	-0.1	-0.1	-0.1	87	-2.0	2	5	247	0.00	1000.173	0	0.000	0
20081124 23:10	-0.2	-0.2	-0.2	88	-2.0	2	3	247	0.00	1000.274	0	0.000	0
20081124 23:15	-0.3	-0.3	-0.3	88	-2.0	2	5	247	0.00	1000.308	0	0.000	0
20081124 23:20	-0.3	-0.3	-0.3	88	-2.1	2	5	247	0.00	1000.376	0	0.000	0
20081124 23:25	-0.3	-0.3	-0.3	88	-2.1	2	5	247	0.00	1000.477	0	0.000	0
20081124 23:30	-0.3	-0.3	-0.3	88	-2.1	3	8	247	0.00	1000.579	0	0.000	0
20081124 23:35	-0.4	-0.4	-0.4	88	-2.1	3	8	247	0.00	1000.647	0	0.000	0
20081124 23:40	-0.4	-0.4	-0.4	88	-2.2	3	6	247	0.00	1000.748	0	0.000	0
20081124 23:45	-0.4	-0.4	-0.4	88	-2.2	3	8	202	0.00	1000.782	0	0.000	0
20081124 23:50	-0.4	-0.4	-0.4	88	-2.2	3	8	180	0.00	1000.816	0	0.000	0
20081124 23:55	-0.4	-0.4	-0.4	89	-2.0	3	8	202	0.00	1000.782	0	0.000	0
20081124 24:00	-0.3	-0.3	-0.3	89	-1.9	2	8	225	0.00	1000.850	0	0.000	0



Please note the license to use and transfer of this data:
http://creativecommons.org/licenses/by-nc-sa/3.0/deed.en

Bitte beachten sie die Lizenz zur Verwertung und Weitergabe der Daten:
http://creativecommons.org/licenses/by-nc-sa/3.0/deed.de

zurück zur Übersicht der Archivdaten (Monats und Tagesdaten)

Cookies helfen bei der Bereitstellung von Inhalten. Durch die Nutzung dieser Seiten erklärst du dich damit einverstanden, dass Cookies auf deinem Rechner gespeichert werden. Weitere Information